Bermuda Run, North Carolina
Current Conditions -  °F | °C
As of 1:54 AM on Thursday 18 Dec 2014 (Local Time) from KINT Reporting Station
Clear Clear  
Wind Chill: 34°   Ceiling: Unl
Heat Index: 41°   Visibility: 10mi
Dew Point: 27°   Wind: 12mph
Humidity: 57%   Direction: 350°N
Pressure: 30.09"   Gusts: NA
Location:  36.0107°N, 80.4503°W
Report Text: KINT 180654Z AUTO 35010KT 10SM CLR 05/M03 A3009 RMK AO2 SLP190 T00501028
Loading
Personal Weather Stations






























Interactive Weather Map New forecast layout! Learn more

10-Day Weather Forecast

Advertisements
Track Severe Weather on mobile